createdAt,value
2023-05-24T00:00:15.297Z,46.47
2023-05-24T00:02:20.573Z,46.37
2023-05-24T00:04:26.769Z,46.16
2023-05-24T00:06:32.244Z,46.38
2023-05-24T00:08:37.586Z,46.14
2023-05-24T00:10:43.741Z,46.13
2023-05-24T00:12:49.492Z,46.23
2023-05-24T00:14:54.850Z,46.05
2023-05-24T00:17:00.327Z,45.93
2023-05-24T00:19:05.618Z,45.87
2023-05-24T00:21:10.831Z,45.76
2023-05-24T00:23:16.187Z,45.74
2023-05-24T00:25:21.612Z,45.67
2023-05-24T00:27:26.857Z,45.51
2023-05-24T00:29:34.595Z,45.54
2023-05-24T00:31:39.910Z,45.49
2023-05-24T00:33:45.420Z,45.43
2023-05-24T00:35:50.869Z,45.33
2023-05-24T00:37:56.108Z,45.31
2023-05-24T00:40:01.536Z,45.25
2023-05-24T00:42:06.882Z,45.07
2023-05-24T00:44:12.334Z,45.1
2023-05-24T00:46:17.932Z,45.04
2023-05-24T00:48:23.405Z,44.99
2023-05-24T00:50:28.654Z,44.95
2023-05-24T00:52:34.085Z,44.85
2023-05-24T00:54:39.464Z,44.77
2023-05-24T00:56:44.682Z,44.73
2023-05-24T00:58:50.211Z,44.58
2023-05-24T01:00:55.628Z,44.56
2023-05-24T01:03:01.338Z,44.64
2023-05-24T01:05:06.827Z,44.62
2023-05-24T01:07:12.043Z,44.61
2023-05-24T01:09:17.289Z,44.61
2023-05-24T01:11:22.690Z,44.36
2023-05-24T01:13:27.977Z,44.25
2023-05-24T01:15:33.196Z,44.41
2023-05-24T01:17:38.562Z,44.29
2023-05-24T01:19:43.986Z,44.24
2023-05-24T01:21:49.212Z,44.1
2023-05-24T01:23:54.508Z,44
2023-05-24T01:25:59.785Z,44.04
2023-05-24T01:28:05.235Z,44.03
2023-05-24T01:30:10.633Z,43.88
2023-05-24T01:32:16.116Z,43.85
2023-05-24T01:34:21.356Z,43.8
2023-05-24T01:36:26.667Z,43.71
2023-05-24T01:38:32.022Z,43.57
2023-05-24T01:40:37.255Z,43.58
2023-05-24T01:42:42.488Z,43.48
2023-05-24T01:44:47.869Z,43.49
2023-05-24T01:46:53.147Z,43.55
2023-05-24T01:48:58.610Z,43.42
2023-05-24T01:51:03.937Z,43.36
2023-05-24T01:53:09.169Z,43.48
2023-05-24T01:55:14.408Z,43.51
2023-05-24T01:57:19.753Z,43.45
2023-05-24T01:59:24.967Z,43.17
2023-05-24T02:01:30.326Z,43.07
2023-05-24T02:03:35.733Z,42.83
2023-05-24T02:05:41.208Z,42.67
2023-05-24T02:07:46.547Z,42.46
2023-05-24T02:10:55.605Z,42.24
2023-05-24T02:13:00.914Z,42.25
2023-05-24T02:15:06.177Z,42.04
2023-05-24T02:17:11.396Z,41.98
2023-05-24T02:19:16.640Z,41.72
2023-05-24T02:21:21.880Z,41.57
2023-05-24T02:23:27.200Z,41.46
2023-05-24T02:25:32.540Z,41.31
2023-05-24T02:27:37.836Z,41.44
2023-05-24T02:29:43.159Z,41.26
2023-05-24T02:31:48.602Z,41.23
2023-05-24T02:33:53.863Z,41.4
2023-05-24T02:35:59.189Z,41.38
2023-05-24T02:38:04.667Z,41.16
2023-05-24T02:40:09.922Z,41.12
2023-05-24T02:42:15.353Z,41.04
2023-05-24T02:44:20.547Z,41.09
2023-05-24T02:46:26.149Z,41.09
2023-05-24T02:48:31.679Z,40.99
2023-05-24T02:50:36.946Z,40.99
2023-05-24T02:52:42.254Z,40.89
2023-05-24T02:54:47.474Z,40.91
2023-05-24T02:56:52.692Z,40.84
2023-05-24T02:58:57.947Z,40.79
2023-05-24T03:01:03.687Z,40.88
2023-05-24T03:03:09.385Z,40.89
2023-05-24T03:05:15.080Z,40.92
2023-05-24T03:07:20.423Z,40.93
2023-05-24T03:09:25.716Z,40.94
2023-05-24T03:11:31.216Z,40.89
2023-05-24T03:13:36.546Z,40.96
2023-05-24T03:15:41.986Z,41.03
2023-05-24T03:17:47.448Z,41.03
2023-05-24T03:19:53.057Z,41.1
2023-05-24T03:21:58.418Z,41.07
2023-05-24T03:24:03.641Z,41.1
2023-05-24T03:26:09.086Z,41.02
2023-05-24T03:28:14.370Z,41.05
2023-05-24T03:30:19.648Z,41.12
2023-05-24T03:32:25.218Z,41.08
2023-05-24T03:34:30.563Z,41.02
2023-05-24T03:36:35.969Z,41.02
2023-05-24T03:38:41.318Z,41.11
2023-05-24T03:40:46.815Z,40.93
2023-05-24T03:42:52.078Z,40.92
2023-05-24T03:44:57.528Z,40.94
2023-05-24T03:47:02.753Z,40.92
2023-05-24T03:49:08.070Z,40.85
2023-05-24T03:51:13.295Z,40.76
2023-05-24T03:53:19.560Z,40.77
2023-05-24T03:55:25.357Z,40.75
2023-05-24T03:57:30.788Z,40.64
2023-05-24T03:59:36.170Z,40.7
2023-05-24T04:01:41.391Z,40.66
2023-05-24T04:03:47.252Z,40.45
2023-05-24T04:05:52.525Z,40.45
2023-05-24T04:07:57.985Z,40.48
2023-05-24T04:10:03.235Z,40.5
2023-05-24T04:12:08.449Z,40.53
2023-05-24T04:14:13.792Z,40.6
2023-05-24T04:16:19.129Z,40.54
2023-05-24T04:18:24.645Z,40.55
2023-05-24T04:20:30.381Z,40.43
2023-05-24T04:22:36.174Z,40.44
2023-05-24T04:24:41.835Z,40.34
2023-05-24T04:26:47.252Z,40.37
2023-05-24T04:28:52.706Z,40.33
2023-05-24T04:30:57.994Z,40.36
2023-05-24T04:33:03.472Z,40.45
2023-05-24T04:35:08.696Z,40.41
2023-05-24T04:37:13.957Z,40.38
2023-05-24T04:39:19.488Z,40.45
2023-05-24T04:41:24.950Z,40.46
2023-05-24T04:43:30.421Z,40.57
2023-05-24T04:45:35.727Z,40.59
2023-05-24T04:47:41.111Z,40.57
2023-05-24T04:49:46.381Z,40.55
2023-05-24T04:51:53.403Z,40.52
2023-05-24T04:53:59.701Z,40.56
2023-05-24T04:56:05.158Z,40.53
2023-05-24T04:58:12.092Z,40.61
2023-05-24T05:00:17.297Z,40.6
2023-05-24T05:02:22.866Z,40.56
2023-05-24T05:04:28.053Z,40.67
2023-05-24T05:06:33.296Z,40.69
2023-05-24T05:08:38.734Z,40.64
2023-05-24T05:10:44.604Z,40.65
2023-05-24T05:12:49.909Z,40.65
2023-05-24T05:14:55.254Z,40.63
2023-05-24T05:17:00.541Z,40.83
2023-05-24T05:19:06.019Z,40.96
2023-05-24T05:21:11.354Z,40.94
2023-05-24T05:23:16.706Z,40.93
2023-05-24T05:25:21.916Z,41.08
2023-05-24T05:27:27.203Z,41.81
2023-05-24T05:29:32.518Z,42.14
2023-05-24T05:31:37.958Z,42.46
2023-05-24T05:33:43.384Z,42.48
2023-05-24T05:35:48.645Z,42.66
2023-05-24T05:37:53.969Z,42.42
2023-05-24T05:39:59.417Z,42.36
2023-05-24T05:42:04.795Z,42.27
2023-05-24T05:44:10.183Z,41.71
2023-05-24T05:46:15.424Z,41.6
2023-05-24T05:48:20.968Z,41.5
2023-05-24T05:50:26.332Z,41.32
2023-05-24T05:52:31.860Z,41.68
2023-05-24T05:54:37.160Z,41.23
2023-05-24T05:56:42.452Z,41.15
2023-05-24T05:58:47.677Z,41.49
2023-05-24T06:00:53.104Z,41.42
2023-05-24T06:02:58.761Z,41.68
2023-05-24T06:05:04.392Z,41.55
2023-05-24T06:07:09.644Z,41.22
2023-05-24T06:09:14.861Z,41.02
2023-05-24T06:11:20.138Z,40.71
2023-05-24T06:13:25.335Z,40.58
2023-05-24T06:15:30.566Z,40.59
2023-05-24T06:17:36.007Z,40.83
2023-05-24T06:19:41.273Z,40.82
2023-05-24T06:21:46.440Z,40.88
2023-05-24T06:23:51.575Z,40.78
2023-05-24T06:25:56.697Z,40.73
2023-05-24T06:28:01.832Z,40.64
2023-05-24T06:30:07.254Z,40.55
2023-05-24T06:32:12.400Z,40.53
2023-05-24T06:34:17.542Z,40.48
2023-05-24T06:36:22.879Z,40.24
2023-05-24T06:38:28.472Z,40.14
2023-05-24T06:40:33.757Z,40.07
2023-05-24T06:42:39.147Z,40.05
2023-05-24T06:44:44.409Z,39.94
2023-05-24T06:46:49.863Z,39.98
2023-05-24T06:48:55.672Z,39.92
2023-05-24T06:51:01.213Z,39.79
2023-05-24T06:53:06.657Z,39.69
2023-05-24T06:55:12.070Z,39.68
2023-05-24T06:57:17.538Z,39.58
2023-05-24T06:59:22.997Z,39.65
2023-05-24T07:01:28.410Z,39.6
2023-05-24T07:03:33.750Z,39.71
2023-05-24T07:05:39.085Z,39.79
2023-05-24T07:07:44.472Z,39.84
2023-05-24T07:09:49.882Z,39.82
2023-05-24T07:11:55.203Z,39.79
2023-05-24T07:14:00.456Z,39.81
2023-05-24T07:16:05.772Z,39.83
2023-05-24T07:18:11.059Z,39.82
2023-05-24T07:20:16.428Z,39.81
2023-05-24T07:22:21.532Z,39.73
2023-05-24T07:24:26.828Z,39.52
2023-05-24T07:26:32.033Z,39.47
2023-05-24T07:28:37.138Z,39.57
2023-05-24T07:30:42.371Z,39.53
2023-05-24T07:32:48.121Z,39.51
2023-05-24T07:34:53.513Z,39.39
2023-05-24T07:36:58.857Z,39.34
2023-05-24T07:39:04.232Z,39.33
2023-05-24T07:41:09.512Z,39.18
2023-05-24T07:43:14.956Z,38.96
2023-05-24T07:45:20.255Z,39.17
2023-05-24T07:47:25.832Z,38.98
2023-05-24T07:49:31.091Z,39.07
2023-05-24T07:51:36.363Z,39.18
2023-05-24T07:53:41.650Z,39.07
2023-05-24T07:55:47.155Z,38.92
2023-05-24T07:57:52.438Z,39.2
2023-05-24T07:59:57.870Z,39.03
2023-05-24T08:02:03.146Z,38.94
2023-05-24T08:04:08.726Z,39.06
2023-05-24T08:06:14.087Z,39.01
2023-05-24T08:08:19.527Z,38.94
2023-05-24T08:10:24.863Z,38.99
2023-05-24T08:12:30.119Z,38.8
2023-05-24T08:14:35.366Z,38.95
2023-05-24T08:16:40.813Z,38.83
2023-05-24T08:18:46.111Z,38.9
2023-05-24T08:20:51.484Z,38.73
2023-05-24T08:22:56.820Z,38.75
2023-05-24T08:25:02.323Z,38.54
2023-05-24T08:27:07.610Z,38.94
2023-05-24T08:29:12.979Z,38.85
2023-05-24T08:31:18.962Z,39.05
2023-05-24T08:33:24.838Z,39
2023-05-24T08:35:30.103Z,39.06
2023-05-24T08:37:35.281Z,38.78
2023-05-24T08:39:40.731Z,38.78
2023-05-24T08:44:10.666Z,38.42
2023-05-24T08:46:16.034Z,38.41
2023-05-24T08:48:21.843Z,38.39
2023-05-24T08:50:27.146Z,38.25
2023-05-24T08:52:32.518Z,38.11
2023-05-24T08:54:37.847Z,38.26
2023-05-24T08:56:45.954Z,38.21
2023-05-24T08:58:51.288Z,38.12
2023-05-24T09:00:56.767Z,38.25
2023-05-24T09:03:02.293Z,38.24
2023-05-24T09:05:07.617Z,38.17
2023-05-24T09:07:12.861Z,38.14
2023-05-24T09:09:18.051Z,37.97
2023-05-24T09:11:23.367Z,37.95
2023-05-24T09:13:28.866Z,37.82
2023-05-24T09:15:34.148Z,38
2023-05-24T09:17:40.070Z,37.9
2023-05-24T09:19:45.506Z,37.78
2023-05-24T09:21:51.250Z,37.77
2023-05-24T09:23:56.705Z,37.73
2023-05-24T09:26:02.030Z,37.55
2023-05-24T09:28:07.459Z,37.84
2023-05-24T09:30:13.288Z,37.77
2023-05-24T09:32:18.550Z,37.69
2023-05-24T09:34:23.881Z,37.57
2023-05-24T09:36:29.120Z,37.48
2023-05-24T09:38:34.546Z,37.4
2023-05-24T09:40:39.952Z,37.34
2023-05-24T09:42:45.337Z,37.41
2023-05-24T09:44:50.776Z,37.34
2023-05-24T09:46:56.270Z,38.11
2023-05-24T09:49:01.588Z,38.62
2023-05-24T09:51:07.182Z,38.27
2023-05-24T09:53:12.641Z,38.28
2023-05-24T09:55:18.251Z,38.3
2023-05-24T09:57:23.747Z,38.4
2023-05-24T09:59:28.982Z,38.33
2023-05-24T10:01:34.386Z,38.51
2023-05-24T10:03:40.805Z,38.27
2023-05-24T10:05:46.731Z,38.16
2023-05-24T10:07:52.042Z,38.32
2023-05-24T10:09:57.319Z,38.25
2023-05-24T10:12:02.608Z,38.09
2023-05-24T10:14:07.880Z,38.04
2023-05-24T10:16:13.714Z,38.09
2023-05-24T10:18:19.124Z,38.06
2023-05-24T10:20:24.790Z,38.06
2023-05-24T10:22:30.242Z,37.92
2023-05-24T10:24:35.750Z,37.9
2023-05-24T10:26:41.246Z,38.52
2023-05-24T10:28:46.620Z,38.73
2023-05-24T10:30:52.012Z,38.59
2023-05-24T10:32:57.416Z,38.41
2023-05-24T10:35:03.074Z,38.53
2023-05-24T10:37:08.584Z,38.42
2023-05-24T10:39:14.185Z,38.47
2023-05-24T10:41:19.710Z,38.57
2023-05-24T10:43:24.931Z,38.24
2023-05-24T10:45:30.264Z,38.26
2023-05-24T10:47:39.031Z,38.23
2023-05-24T10:49:44.826Z,38.34
2023-05-24T10:51:50.278Z,38.12
2023-05-24T10:53:55.723Z,38.34
2023-05-24T10:56:01.071Z,38.13
2023-05-24T10:58:06.383Z,38.17
2023-05-24T11:00:27.058Z,38.04
2023-05-24T11:02:39.326Z,38.21
2023-05-24T11:04:44.803Z,37.99
2023-05-24T11:06:50.277Z,37.89
2023-05-24T11:08:55.618Z,38.17
2023-05-24T11:11:24.968Z,37.86
2023-05-24T11:13:31.968Z,37.9
2023-05-24T11:15:37.260Z,37.8
2023-05-24T11:17:45.442Z,37.7
2023-05-24T11:19:50.916Z,37.77
2023-05-24T11:21:56.598Z,37.72
2023-05-24T11:24:02.004Z,37.72
2023-05-24T11:26:07.363Z,37.8
2023-05-24T11:28:12.838Z,37.79
2023-05-24T11:30:18.286Z,37.84
2023-05-24T11:32:24.152Z,37.94
2023-05-24T11:34:29.516Z,37.91
2023-05-24T11:36:35.121Z,37.81
2023-05-24T11:38:40.524Z,37.89
2023-05-24T11:40:46.259Z,37.76
2023-05-24T11:42:51.544Z,37.77
2023-05-24T11:44:56.884Z,37.73
2023-05-24T11:47:02.326Z,37.92
2023-05-24T11:49:07.867Z,37.81
2023-05-24T11:51:13.502Z,37.74
2023-05-24T11:53:18.828Z,37.76
2023-05-24T11:55:24.281Z,37.83
2023-05-24T11:57:29.534Z,37.95
2023-05-24T11:59:34.776Z,37.87
2023-05-24T12:01:40.086Z,37.72
2023-05-24T12:03:46.209Z,37.69
2023-05-24T12:05:51.657Z,37.77
2023-05-24T12:07:56.932Z,37.73
2023-05-24T12:10:02.261Z,37.9
2023-05-24T12:12:07.573Z,38.05
2023-05-24T12:14:13.041Z,37.97
2023-05-24T12:16:18.596Z,38.04
2023-05-24T12:18:23.964Z,37.92
2023-05-24T12:20:29.379Z,37.86
2023-05-24T12:22:34.755Z,38.15
2023-05-24T12:24:39.962Z,38.08
2023-05-24T12:26:45.182Z,37.79
2023-05-24T12:28:50.720Z,37.7
2023-05-24T12:30:56.109Z,37.8
2023-05-24T12:33:01.554Z,37.93
2023-05-24T12:35:06.968Z,37.87
2023-05-24T12:37:12.437Z,37.63
2023-05-24T12:39:18.127Z,37.6
2023-05-24T12:41:23.451Z,37.63
2023-05-24T12:43:28.700Z,37.58
2023-05-24T12:45:33.983Z,37.64
2023-05-24T12:47:39.354Z,37.76
2023-05-24T12:49:44.732Z,38.04
2023-05-24T12:51:52.198Z,37.71
2023-05-24T12:53:57.642Z,37.88
2023-05-24T12:56:02.951Z,37.85
2023-05-24T12:58:08.399Z,37.64
2023-05-24T13:00:13.744Z,37.84
2023-05-24T13:02:18.971Z,37.81
2023-05-24T13:04:24.610Z,37.82
2023-05-24T13:06:29.961Z,38.14
2023-05-24T13:08:35.198Z,38.21
2023-05-24T13:10:40.561Z,38.02
2023-05-24T13:12:45.984Z,37.94
2023-05-24T13:14:54.356Z,37.98
2023-05-24T13:16:59.834Z,38.16
2023-05-24T13:19:05.215Z,37.57
2023-05-24T13:21:14.037Z,37.27
2023-05-24T13:23:19.307Z,37.22
2023-05-24T13:25:24.595Z,37.15
2023-05-24T13:27:30.090Z,37.77
2023-05-24T13:30:01.656Z,37.19
2023-05-24T13:32:07.190Z,37.08
2023-05-24T13:34:12.767Z,37.08
2023-05-24T13:36:18.365Z,37.6
2023-05-24T13:38:23.647Z,37.36
2023-05-24T13:40:29.168Z,37.87
2023-05-24T13:42:34.643Z,37.96
2023-05-24T13:44:40.111Z,38.1
2023-05-24T13:46:46.032Z,37.88
2023-05-24T13:48:51.472Z,37.69
2023-05-24T13:50:56.761Z,37.48
2023-05-24T13:53:02.004Z,37.64
2023-05-24T13:55:07.436Z,38.42
2023-05-24T13:57:12.711Z,37.18
2023-05-24T13:59:18.152Z,36.13
2023-05-24T14:01:23.671Z,35.79
2023-05-24T14:03:29.088Z,36.31
2023-05-24T14:05:34.570Z,36.59
2023-05-24T14:07:40.166Z,36.87
2023-05-24T14:09:45.503Z,36.66
2023-05-24T14:11:50.836Z,36.73
2023-05-24T14:16:13.007Z,37.01
2023-05-24T14:18:18.464Z,36.53
2023-05-24T14:20:23.999Z,36.5
2023-05-24T14:22:29.278Z,36.65
2023-05-24T14:24:34.669Z,36.34
2023-05-24T14:26:39.973Z,36.52
2023-05-24T14:28:45.276Z,36.5
2023-05-24T14:30:50.683Z,36.46
2023-05-24T14:32:56.103Z,36.36
2023-05-24T14:35:01.568Z,36.25
2023-05-24T14:37:06.932Z,36.24
2023-05-24T14:39:12.451Z,36.26
2023-05-24T14:41:17.785Z,36.31
2023-05-24T14:43:23.082Z,36.13
2023-05-24T14:45:28.407Z,36.15
2023-05-24T14:47:33.916Z,36.13
2023-05-24T14:49:39.302Z,36.11
2023-05-24T14:51:44.781Z,36.03
2023-05-24T14:53:50.236Z,35.94
2023-05-24T14:55:55.562Z,36.01
2023-05-24T14:58:00.973Z,36.18
2023-05-24T15:00:06.350Z,36.21
2023-05-24T15:02:11.891Z,36.04
2023-05-24T15:04:17.276Z,35.99
2023-05-24T15:06:22.716Z,35.99
2023-05-24T15:08:27.998Z,35.92
2023-05-24T15:10:33.570Z,35.81
2023-05-24T15:12:39.077Z,36.05
2023-05-24T15:14:44.412Z,35.86
2023-05-24T15:16:49.769Z,35.91
2023-05-24T15:18:55.315Z,35.72
2023-05-24T15:21:00.900Z,35.87
2023-05-24T15:23:06.240Z,35.75
2023-05-24T15:25:11.604Z,35.69
2023-05-24T15:27:16.891Z,35.54
2023-05-24T15:29:22.230Z,35.66
2023-05-24T15:31:27.772Z,35.99
2023-05-24T15:33:33.311Z,35.94
2023-05-24T15:35:38.622Z,36.17
2023-05-24T15:37:44.061Z,36.58
2023-05-24T15:39:49.506Z,36.61
2023-05-24T15:41:54.862Z,36.48
2023-05-24T15:44:00.277Z,36.73
2023-05-24T15:46:05.736Z,36.67
2023-05-24T15:48:11.155Z,37.03
2023-05-24T15:50:16.514Z,36.64
2023-05-24T15:52:22.067Z,36.93
2023-05-24T15:54:27.275Z,36.67
2023-05-24T15:56:32.425Z,36.98
2023-05-24T15:58:37.698Z,37.34
2023-05-24T16:00:43.624Z,37.23
2023-05-24T16:02:49.227Z,37.28
2023-05-24T16:04:54.701Z,37.52
2023-05-24T16:06:59.887Z,37.7
2023-05-24T16:09:05.377Z,38.01
2023-05-24T16:11:10.703Z,37.79
2023-05-24T16:13:15.955Z,37.81
2023-05-24T16:15:21.381Z,38.1
2023-05-24T16:17:26.842Z,37.5
2023-05-24T16:19:32.449Z,37.34
2023-05-24T16:21:37.796Z,37.21
2023-05-24T16:23:43.053Z,37.21
2023-05-24T16:25:48.477Z,37.24
2023-05-24T16:27:53.934Z,37.77
2023-05-24T16:29:59.350Z,37.37
2023-05-24T16:32:04.612Z,37.35
2023-05-24T16:34:10.028Z,37.83
2023-05-24T16:36:15.587Z,37.51
2023-05-24T16:38:20.816Z,37.86
2023-05-24T16:40:26.249Z,37.73
2023-05-24T16:42:31.694Z,37.55
2023-05-24T16:44:36.922Z,38.12
2023-05-24T16:46:42.504Z,37.78
2023-05-24T16:48:48.048Z,37.46
2023-05-24T16:50:53.361Z,36.95
2023-05-24T16:52:58.704Z,36.89
2023-05-24T16:55:04.228Z,36.01
2023-05-24T16:57:09.532Z,35.86
2023-05-24T16:59:14.802Z,35.96
2023-05-24T17:01:20.255Z,36.12
2023-05-24T17:03:26.178Z,35.81
2023-05-24T17:05:31.746Z,35.67
2023-05-24T17:07:36.984Z,35.33
2023-05-24T17:09:42.430Z,35.28
2023-05-24T17:11:50.781Z,34.86
2023-05-24T17:13:56.423Z,35.49
2023-05-24T17:16:02.259Z,35.42
2023-05-24T17:18:07.705Z,35.27
2023-05-24T17:20:13.319Z,34.83
2023-05-24T17:22:18.772Z,34.54
2023-05-24T17:24:23.982Z,35.22
2023-05-24T17:26:29.260Z,35.17
2023-05-24T17:28:34.573Z,35.31
2023-05-24T17:30:40.095Z,35.78
2023-05-24T17:32:45.616Z,35.87
2023-05-24T17:34:50.885Z,34.73
2023-05-24T17:36:56.144Z,34.31
2023-05-24T17:39:01.572Z,34.51
2023-05-24T17:41:06.806Z,34.73
2023-05-24T17:43:12.093Z,35.09
2023-05-24T17:45:17.381Z,35.33
2023-05-24T17:47:22.704Z,35.67
2023-05-24T17:49:28.038Z,36.16
2023-05-24T17:51:33.331Z,36.94
2023-05-24T17:53:38.702Z,37.99
2023-05-24T17:55:44.629Z,40.17
2023-05-24T17:57:50.004Z,38.16
2023-05-24T17:59:55.279Z,38.33
2023-05-24T18:02:00.694Z,39.95
2023-05-24T18:04:08.919Z,39.14
2023-05-24T18:06:14.142Z,39.71
2023-05-24T18:08:19.454Z,39.65
2023-05-24T18:10:24.858Z,38.57
2023-05-24T18:12:30.142Z,39.1
2023-05-24T18:14:35.586Z,37.88
2023-05-24T18:16:41.275Z,38.3
2023-05-24T18:18:46.964Z,38.5
2023-05-24T18:20:52.306Z,38.62
2023-05-24T18:22:57.528Z,38.89
2023-05-24T18:25:02.844Z,38.24
2023-05-24T18:27:08.206Z,39.15
2023-05-24T18:29:13.647Z,38.68
2023-05-24T18:31:18.797Z,38.36
2023-05-24T18:33:24.480Z,38.01
2023-05-24T18:35:29.676Z,39.04
2023-05-24T18:37:34.912Z,38.5
2023-05-24T18:39:40.278Z,39.08
2023-05-24T18:41:45.672Z,39.16
2023-05-24T18:43:51.057Z,38.39
2023-05-24T18:45:56.356Z,39
2023-05-24T18:48:01.775Z,38.83
2023-05-24T18:50:07.236Z,39.02
2023-05-24T18:52:12.409Z,39.65
2023-05-24T18:54:17.757Z,39.08
2023-05-24T18:56:22.914Z,39.6
2023-05-24T18:58:28.181Z,39.43
2023-05-24T19:00:33.413Z,39.84
2023-05-24T19:02:39.254Z,39.14
2023-05-24T19:04:44.929Z,39.55
2023-05-24T19:06:50.350Z,39.04
2023-05-24T19:08:55.658Z,39.33
2023-05-24T19:11:00.818Z,40.22
2023-05-24T19:13:05.951Z,40.82
2023-05-24T19:15:11.057Z,39.99
2023-05-24T19:17:16.495Z,40.13
2023-05-24T19:19:21.862Z,40.8
2023-05-24T19:21:27.107Z,40.68
2023-05-24T19:23:32.360Z,40.35
2023-05-24T19:25:39.770Z,39.93
2023-05-24T19:28:02.324Z,39.3
2023-05-24T19:30:07.667Z,39.14
2023-05-24T19:32:13.436Z,39.19
2023-05-24T19:34:18.751Z,39.1
2023-05-24T19:36:24.099Z,38.86
2023-05-24T19:38:29.575Z,38.75
2023-05-24T19:40:34.814Z,38.99
2023-05-24T19:42:40.252Z,39.26
2023-05-24T19:44:45.511Z,39.2
2023-05-24T19:46:50.809Z,38.54
2023-05-24T19:48:56.068Z,38.87
2023-05-24T19:51:01.325Z,39.08
2023-05-24T19:53:06.628Z,39.57
2023-05-24T19:55:11.892Z,39.87
2023-05-24T19:57:17.194Z,39.96
2023-05-24T19:59:22.522Z,39.35
2023-05-24T20:01:27.923Z,39.93
2023-05-24T20:03:33.581Z,39.68
2023-05-24T20:05:39.380Z,39.32
2023-05-24T20:07:44.607Z,39.42
2023-05-24T20:09:49.889Z,39.55
2023-05-24T20:11:55.289Z,40.13
2023-05-24T20:14:00.617Z,39.99
2023-05-24T20:16:06.095Z,39.86
2023-05-24T20:18:11.640Z,39.38
2023-05-24T20:20:17.415Z,39.22
2023-05-24T20:22:22.723Z,38.99
2023-05-24T20:24:27.935Z,38.97
2023-05-24T20:26:33.385Z,38.85
2023-05-24T20:28:38.810Z,38.81
2023-05-24T20:30:44.150Z,38.76
2023-05-24T20:32:49.724Z,38.56
2023-05-24T20:34:55.025Z,38.39
2023-05-24T20:37:00.338Z,38.52
2023-05-24T20:39:05.664Z,38.41
2023-05-24T20:41:11.053Z,38.5
2023-05-24T20:43:16.394Z,38.39
2023-05-24T20:45:21.643Z,38.44
2023-05-24T20:47:30.345Z,38.18
2023-05-24T20:49:35.773Z,37.91
2023-05-24T20:51:41.028Z,37.9
2023-05-24T20:53:46.451Z,37.79
2023-05-24T20:55:51.709Z,37.84
2023-05-24T20:57:57.030Z,37.78
2023-05-24T21:00:02.295Z,37.77
2023-05-24T21:02:08.023Z,37.96
2023-05-24T21:04:13.449Z,38.11
2023-05-24T21:06:18.793Z,38.14
2023-05-24T21:08:24.249Z,37.83
2023-05-24T21:10:29.772Z,38.29
2023-05-24T21:12:35.131Z,38.04
2023-05-24T21:14:40.546Z,37.92
2023-05-24T21:16:45.999Z,37.8
2023-05-24T21:18:51.429Z,37.82
2023-05-24T21:20:56.656Z,38.04
2023-05-24T21:23:01.925Z,37.93
2023-05-24T21:25:07.348Z,37.9
2023-05-24T21:27:12.627Z,37.97
2023-05-24T21:29:17.815Z,37.97
2023-05-24T21:31:23.237Z,37.9
2023-05-24T21:33:28.600Z,37.74
2023-05-24T21:35:34.030Z,37.76
2023-05-24T21:37:39.253Z,38.19
2023-05-24T21:39:44.706Z,38.25
2023-05-24T21:41:50.050Z,38.16
2023-05-24T21:43:55.482Z,37.77
2023-05-24T21:46:00.730Z,37.58
2023-05-24T21:48:06.136Z,37.61
2023-05-24T21:50:11.411Z,37.5
2023-05-24T21:52:16.834Z,37.48
2023-05-24T21:54:22.068Z,37.32
2023-05-24T21:56:27.548Z,37.38
2023-05-24T21:58:32.949Z,37.27
